ニアメ の空港の天気 - METARとTAF

ニアメ/ディオリ・アマニ国際空港 ( DRRN / NIM ) - ニジェール ニアメ
飛行場実況気象(Metar)
観測時間03/22 21:00 WAT (03/22 20:00 UTC)
風向・風速北 3m/s
視程6000m
天気現象
なし
気温35℃
湿度6%
気圧1008hPa
METARDRRN 222000Z 36006KT 6000 NSC 35/M08 Q1008 NOSIG
過去の天気等 Google飛行場航空写真 Wunderground天気予報

過去48時間のMETAR

飛行場予報(TAF)
発表時間: 3/22 18:00 WAT (3/22 17:00 UTC)
予報対象時間: 22日19時 WAT ~ 24日1時 WAT
風向・風速北北東 3m/s
視程8000m
なし
22日19時 WAT ~ 22日22時 WAT に一時的に
視程4000m
天気現象風塵
23日8時 WAT ~ 23日13時 WAT に一時的に
風向・風速東北東 8m/s
視程3500m
天気現象高い風塵
TAF DRRN 221700Z 2218/2324 02006KT 8000 NSC
TEMPO 2218/2221 4000 DU
TEMPO 2307/2312 06016KT 3500 BLDU